Time;durP1;ratioP1;P1;durP2;ratioP2;P2;SDS_P1;SDS_P2;PMS_P1;PMS_P2;Temp;Humidity;BMP_temperature;BMP_pressure;BME280_temperature;BME280_humidity;BME280_pressure;Samples;Min_cycle;Max_cycle;Signal;HPM_P1;HPM_P2
2022/08/31 00:05:03;;;;;;;1.90;0.80;;;;;;;;;;5013307;28;19931;-52
2022/08/31 00:07:33;;;;;;;1.45;0.60;;;;;;;;;;5013159;28;20541;-53
2022/08/31 00:10:02;;;;;;;3.50;0.75;;;;;;;;;;5013004;28;20374;-51
2022/08/31 00:12:30;;;;;;;1.63;0.55;;;;;;;;;;4999497;28;20129;-51
2022/08/31 00:14:57;;;;;;;1.67;0.70;;;;;;;;;;4993666;28;20050;-53
2022/08/31 00:17:25;;;;;;;2.42;0.73;;;;;;;;;;4993680;28;20057;-49
2022/08/31 00:19:53;;;;;;;1.60;0.80;;;;;;;;;;4993671;28;20439;-53
2022/08/31 00:22:21;;;;;;;2.00;0.50;;;;;;;;;;4996875;28;20058;-51
2022/08/31 00:24:48;;;;;;;2.85;0.60;;;;;;;;;;4997186;28;20141;-53
2022/08/31 00:27:16;;;;;;;1.52;0.43;;;;;;;;;;4996837;28;20479;-53
2022/08/31 00:29:44;;;;;;;1.25;0.50;;;;;;;;;;4996679;28;20074;-52
2022/08/31 00:32:11;;;;;;;1.15;0.47;;;;;;;;;;4997312;28;20069;-53
2022/08/31 00:34:40;;;;;;;3.22;0.50;;;;;;;;;;4997337;28;20052;-50
2022/08/31 00:37:07;;;;;;;1.38;0.50;;;;;;;;;;4996808;28;20054;-50
2022/08/31 00:39:34;;;;;;;1.25;0.60;;;;;;;;;;4996093;28;20050;-51
2022/08/31 00:42:03;;;;;;;2.63;0.50;;;;;;;;;;4997175;28;20058;-50
2022/08/31 00:44:31;;;;;;;0.90;0.40;;;;;;;;;;4996941;28;20076;-53
2022/08/31 00:47:00;;;;;;;1.50;0.50;;;;;;;;;;4997063;28;20064;-50
2022/08/31 00:49:30;;;;;;;2.05;0.47;;;;;;;;;;4996719;28;20149;-53
2022/08/31 00:52:04;;;;;;;2.22;0.40;;;;;;;;;;4985335;28;20166;-52
2022/08/31 00:54:33;;;;;;;1.63;0.35;;;;;;;;;;4996402;28;20038;-53
2022/08/31 00:57:01;;;;;;;2.38;0.40;;;;;;;;;;4997799;28;20430;-53
2022/08/31 00:59:29;;;;;;;3.22;0.38;;;;;;;;;;4996785;28;20046;-53
2022/08/31 01:01:55;;;;;;;1.05;0.40;;;;;;;;;;4996390;28;20593;-50
2022/08/31 01:04:25;;;;;;;0.75;0.30;;;;;;;;;;4996700;28;20050;-52
2022/08/31 01:06:53;;;;;;;1.42;0.40;;;;;;;;;;4996825;28;20042;-50
2022/08/31 01:09:23;;;;;;;2.20;0.50;;;;;;;;;;4996958;28;20050;-52
2022/08/31 01:11:50;;;;;;;1.58;0.63;;;;;;;;;;4996762;28;20050;-51
2022/08/31 01:14:17;;;;;;;1.27;0.38;;;;;;;;;;4996877;28;20046;-51
2022/08/31 01:16:46;;;;;;;0.52;0.30;;;;;;;;;;4996945;28;20091;-49
2022/08/31 01:19:16;;;;;;;1.10;0.30;;;;;;;;;;4996836;28;20050;-50
2022/08/31 01:21:44;;;;;;;3.13;0.50;;;;;;;;;;4996212;28;20054;-48
2022/08/31 01:24:14;;;;;;;1.90;0.60;;;;;;;;;;4996532;28;20053;-52
2022/08/31 01:26:40;;;;;;;1.27;0.30;;;;;;;;;;4996571;28;20056;-52
2022/08/31 01:29:07;;;;;;;1.17;0.30;;;;;;;;;;4995914;28;20057;-49
2022/08/31 01:31:36;;;;;;;4.10;0.68;;;;;;;;;;4995997;28;20046;-51
2022/08/31 01:34:03;;;;;;;1.55;0.50;;;;;;;;;;4995934;28;20058;-52
2022/08/31 01:36:31;;;;;;;1.13;0.32;;;;;;;;;;4995993;28;20109;-49
2022/08/31 01:38:59;;;;;;;0.88;0.50;;;;;;;;;;4996049;28;20077;-52
2022/08/31 01:41:30;;;;;;;0.70;0.43;;;;;;;;;;4995802;28;20100;-50
2022/08/31 01:44:00;;;;;;;1.75;0.43;;;;;;;;;;4995452;28;20433;-52
2022/08/31 01:46:30;;;;;;;2.72;0.50;;;;;;;;;;4995887;28;20054;-52
2022/08/31 01:49:00;;;;;;;0.88;0.40;;;;;;;;;;4996207;28;20143;-50
2022/08/31 01:51:30;;;;;;;1.77;0.60;;;;;;;;;;4995657;28;20054;-51
2022/08/31 01:54:00;;;;;;;2.03;0.80;;;;;;;;;;4995372;28;20125;-52
2022/08/31 01:56:34;;;;;;;4.57;1.13;;;;;;;;;;4995987;28;20054;-53
2022/08/31 01:59:02;;;;;;;2.72;1.08;;;;;;;;;;5015228;28;20053;-52
2022/08/31 02:01:31;;;;;;;2.53;0.80;;;;;;;;;;5015231;28;20466;-51
2022/08/31 02:04:01;;;;;;;2.33;0.80;;;;;;;;;;5015146;28;20259;-49
2022/08/31 02:06:27;;;;;;;2.45;0.88;;;;;;;;;;4998548;28;20271;-49
2022/08/31 02:08:54;;;;;;;2.28;0.60;;;;;;;;;;4995784;28;20066;-49
2022/08/31 02:11:24;;;;;;;2.90;0.88;;;;;;;;;;4995694;28;20050;-51
2022/08/31 02:13:53;;;;;;;1.55;0.80;;;;;;;;;;4995200;28;20137;-50
2022/08/31 02:16:21;;;;;;;2.67;0.95;;;;;;;;;;4994962;28;20054;-50
2022/08/31 02:18:48;;;;;;;3.05;0.82;;;;;;;;;;4994761;28;20617;-49
2022/08/31 02:21:16;;;;;;;4.07;0.50;;;;;;;;;;4995116;28;20073;-52
2022/08/31 02:23:43;;;;;;;4.55;1.00;;;;;;;;;;4995597;28;20057;-51
2022/08/31 02:26:11;;;;;;;5.40;0.75;;;;;;;;;;4995563;28;20056;-49
2022/08/31 02:28:38;;;;;;;4.57;0.80;;;;;;;;;;4995342;28;20061;-49
2022/08/31 02:31:07;;;;;;;3.08;0.80;;;;;;;;;;4995337;28;20066;-53
2022/08/31 02:33:35;;;;;;;1.33;0.60;;;;;;;;;;4995061;28;20100;-51
2022/08/31 02:36:03;;;;;;;1.13;0.40;;;;;;;;;;4995535;28;20050;-50
2022/08/31 02:38:31;;;;;;;2.83;0.90;;;;;;;;;;4995173;28;20062;-50
2022/08/31 02:40:57;;;;;;;2.13;0.70;;;;;;;;;;4994889;28;20061;-52
2022/08/31 02:43:26;;;;;;;1.48;0.63;;;;;;;;;;4989259;28;20047;-50
2022/08/31 02:45:52;;;;;;;0.73;0.40;;;;;;;;;;4975360;28;20047;-49
2022/08/31 02:48:20;;;;;;;2.42;0.50;;;;;;;;;;4975753;28;20050;-52
2022/08/31 02:50:48;;;;;;;3.25;0.70;;;;;;;;;;4986863;28;20058;-52
2022/08/31 02:53:15;;;;;;;2.42;0.60;;;;;;;;;;4994919;28;20058;-49
2022/08/31 02:55:43;;;;;;;1.67;0.60;;;;;;;;;;4994875;28;20058;-49
2022/08/31 02:58:11;;;;;;;3.60;0.70;;;;;;;;;;5009374;28;20045;-52
2022/08/31 03:00:39;;;;;;;0.50;0.30;;;;;;;;;;5014395;28;20064;-53
2022/08/31 03:03:06;;;;;;;1.65;0.63;;;;;;;;;;5014239;28;20054;-48
2022/08/31 03:05:35;;;;;;;2.70;0.60;;;;;;;;;;5014118;28;20495;-49
2022/08/31 03:08:03;;;;;;;1.60;0.50;;;;;;;;;;5014346;28;20076;-50
2022/08/31 03:10:30;;;;;;;0.70;0.40;;;;;;;;;;5014310;28;20058;-51
2022/08/31 03:13:00;;;;;;;2.30;0.60;;;;;;;;;;4996558;28;20061;-52
2022/08/31 03:15:30;;;;;;;2.22;0.70;;;;;;;;;;4994803;28;20046;-49
2022/08/31 03:17:58;;;;;;;3.63;0.45;;;;;;;;;;4994701;28;20333;-48
2022/08/31 03:20:27;;;;;;;0.73;0.30;;;;;;;;;;4994696;28;20069;-52
2022/08/31 03:23:06;;;;;;;0.70;0.40;;;;;;;;;;4994085;28;20065;-49
2022/08/31 03:25:34;;;;;;;3.47;0.55;;;;;;;;;;4994366;28;20054;-51
2022/08/31 03:28:01;;;;;;;1.50;0.50;;;;;;;;;;4994572;28;20050;-51
2022/08/31 03:30:29;;;;;;;2.30;0.43;;;;;;;;;;4994464;28;20589;-48
2022/08/31 03:32:56;;;;;;;1.27;0.43;;;;;;;;;;4993823;28;20486;-51
2022/08/31 03:35:24;;;;;;;1.45;0.40;;;;;;;;;;4994375;28;20141;-50
2022/08/31 03:37:51;;;;;;;7.53;1.23;;;;;;;;;;4994153;28;20069;-52
2022/08/31 03:40:20;;;;;;;1.83;0.60;;;;;;;;;;4984053;28;20050;-48
2022/08/31 03:42:47;;;;;;;3.47;0.60;;;;;;;;;;4974392;28;20074;-52
2022/08/31 03:45:14;;;;;;;1.67;0.40;;;;;;;;;;4974318;28;20046;-48
2022/08/31 03:47:42;;;;;;;1.75;0.73;;;;;;;;;;4974050;28;20051;-48
2022/08/31 03:50:10;;;;;;;0.93;0.40;;;;;;;;;;4980946;28;20172;-48
2022/08/31 03:52:38;;;;;;;1.00;0.40;;;;;;;;;;4994098;28;20047;-51
2022/08/31 03:55:07;;;;;;;3.22;0.50;;;;;;;;;;4994210;28;20057;-49
2022/08/31 03:57:47;;;;;;;2.30;0.45;;;;;;;;;;5007818;28;20149;-49
2022/08/31 04:00:14;;;;;;;1.38;0.60;;;;;;;;;;5017792;28;20060;-48
2022/08/31 04:02:41;;;;;;;3.80;0.80;;;;;;;;;;5017513;28;20478;-50
2022/08/31 04:05:12;;;;;;;1.67;0.68;;;;;;;;;;5017503;28;20054;-51
2022/08/31 04:07:40;;;;;;;1.42;0.38;;;;;;;;;;5017813;28;20478;-50
2022/08/31 04:10:08;;;;;;;1.05;0.60;;;;;;;;;;5017418;28;20050;-50
2022/08/31 04:12:43;;;;;;;2.88;0.98;;;;;;;;;;5002985;28;20065;-52
2022/08/31 04:15:11;;;;;;;1.38;0.40;;;;;;;;;;4997824;28;20057;-49
2022/08/31 04:17:38;;;;;;;2.72;0.60;;;;;;;;;;4997585;28;20058;-49
2022/08/31 04:20:06;;;;;;;1.70;0.40;;;;;;;;;;4997773;28;20059;-49
2022/08/31 04:22:34;;;;;;;1.92;0.50;;;;;;;;;;4997186;28;20058;-50
2022/08/31 04:25:01;;;;;;;3.50;0.60;;;;;;;;;;4997305;28;20057;-49
2022/08/31 04:27:28;;;;;;;4.30;0.52;;;;;;;;;;4997509;28;20054;-50
2022/08/31 04:29:56;;;;;;;2.75;0.50;;;;;;;;;;4997048;28;20390;-51
2022/08/31 04:32:22;;;;;;;1.85;0.60;;;;;;;;;;4997156;28;20411;-52
2022/08/31 04:34:50;;;;;;;1.08;0.50;;;;;;;;;;4997013;28;20097;-52
2022/08/31 04:37:17;;;;;;;2.75;0.77;;;;;;;;;;4981636;28;20054;-50
2022/08/31 04:39:45;;;;;;;3.83;0.70;;;;;;;;;;4982777;28;20057;-50
2022/08/31 04:42:13;;;;;;;1.23;0.60;;;;;;;;;;4997304;28;20050;-49
2022/08/31 04:44:40;;;;;;;1.40;0.63;;;;;;;;;;4996930;28;20112;-50
2022/08/31 04:47:13;;;;;;;4.88;0.90;;;;;;;;;;4996824;28;20125;-49
2022/08/31 04:49:40;;;;;;;1.15;0.45;;;;;;;;;;4996518;28;20054;-48
2022/08/31 04:52:08;;;;;;;2.20;0.65;;;;;;;;;;4997148;28;20057;-48
2022/08/31 04:54:36;;;;;;;2.60;0.70;;;;;;;;;;4996004;28;20057;-49
2022/08/31 04:57:06;;;;;;;2.22;0.70;;;;;;;;;;5002020;28;20501;-48
2022/08/31 04:59:33;;;;;;;4.32;0.60;;;;;;;;;;5016031;28;20520;-49
2022/08/31 05:02:02;;;;;;;3.72;0.82;;;;;;;;;;5016230;28;20145;-49
2022/08/31 05:04:37;;;;;;;4.05;1.17;;;;;;;;;;5015642;28;20060;-51
2022/08/31 05:07:05;;;;;;;2.03;0.68;;;;;;;;;;5015272;28;20128;-51
2022/08/31 05:09:32;;;;;;;1.92;0.60;;;;;;;;;;5016079;28;20057;-52
2022/08/31 05:12:00;;;;;;;4.15;0.65;;;;;;;;;;5006781;28;20065;-48
2022/08/31 05:14:27;;;;;;;3.83;0.70;;;;;;;;;;4996678;28;20166;-50
2022/08/31 05:16:55;;;;;;;5.65;1.08;;;;;;;;;;4996822;28;20054;-49
2022/08/31 05:19:22;;;;;;;3.88;0.60;;;;;;;;;;4996295;28;20046;-48
2022/08/31 05:21:54;;;;;;;3.08;0.57;;;;;;;;;;4995634;28;20065;-49
2022/08/31 05:24:22;;;;;;;2.70;0.63;;;;;;;;;;4993585;28;20478;-49
2022/08/31 05:26:51;;;;;;;1.52;0.88;;;;;;;;;;4996339;28;20050;-51
2022/08/31 05:29:20;;;;;;;3.15;1.23;;;;;;;;;;4996556;28;20105;-48
2022/08/31 05:31:48;;;;;;;3.35;0.90;;;;;;;;;;4996277;28;20128;-49
2022/08/31 05:34:16;;;;;;;3.35;1.00;;;;;;;;;;4996284;28;20097;-51
2022/08/31 05:36:44;;;;;;;3.08;1.40;;;;;;;;;;4996771;28;20057;-52
2022/08/31 05:39:13;;;;;;;4.68;0.93;;;;;;;;;;4996105;28;20061;-48
2022/08/31 05:41:40;;;;;;;8.95;1.20;;;;;;;;;;4996228;28;20065;-50
2022/08/31 05:44:07;;;;;;;3.10;0.50;;;;;;;;;;4996272;28;20057;-50
2022/08/31 05:46:34;;;;;;;2.25;0.63;;;;;;;;;;4996540;28;20073;-48
2022/08/31 05:49:01;;;;;;;2.85;0.88;;;;;;;;;;4995789;28;20101;-50
2022/08/31 05:51:28;;;;;;;7.15;1.42;;;;;;;;;;4995560;28;20054;-49
2022/08/31 05:53:57;;;;;;;6.78;0.93;;;;;;;;;;4995935;28;20068;-48
2022/08/31 05:56:29;;;;;;;4.60;0.70;;;;;;;;;;4996028;28;20061;-49
2022/08/31 05:58:59;;;;;;;5.57;0.80;;;;;;;;;;5015548;28;20049;-51
2022/08/31 06:01:29;;;;;;;4.47;0.70;;;;;;;;;;5015216;28;20064;-51
2022/08/31 06:03:57;;;;;;;2.92;0.85;;;;;;;;;;5015500;28;20085;-51
2022/08/31 06:06:26;;;;;;;7.32;0.90;;;;;;;;;;5015116;28;20049;-50
2022/08/31 06:08:54;;;;;;;4.22;0.80;;;;;;;;;;5015461;28;20050;-49
2022/08/31 06:11:22;;;;;;;1.05;0.50;;;;;;;;;;5010639;28;20056;-49
2022/08/31 06:14:02;;;;;;;1.45;0.52;;;;;;;;;;4995716;28;20050;-51
2022/08/31 06:16:33;;;;;;;3.33;0.73;;;;;;;;;;4986635;28;20054;-48
2022/08/31 06:19:04;;;;;;;2.03;0.60;;;;;;;;;;4991115;28;20061;-48
2022/08/31 06:21:36;;;;;;;2.38;0.70;;;;;;;;;;4977762;28;20054;-49
2022/08/31 06:24:03;;;;;;;3.78;0.77;;;;;;;;;;4993641;28;20101;-49
2022/08/31 06:26:32;;;;;;;3.65;0.52;;;;;;;;;;4994507;28;20073;-50
2022/08/31 06:29:02;;;;;;;3.22;0.90;;;;;;;;;;4978284;28;20065;-50
2022/08/31 06:31:32;;;;;;;2.35;0.73;;;;;;;;;;4993294;28;20058;-47
2022/08/31 06:34:03;;;;;;;3.38;0.57;;;;;;;;;;4994007;28;20372;-46
2022/08/31 06:36:33;;;;;;;3.47;0.65;;;;;;;;;;4993766;28;20116;-49
2022/08/31 06:39:02;;;;;;;1.38;0.50;;;;;;;;;;4994098;28;20050;-49
2022/08/31 06:41:32;;;;;;;5.45;1.15;;;;;;;;;;4985841;28;20132;-48
2022/08/31 06:44:02;;;;;;;1.30;0.60;;;;;;;;;;4993533;28;20403;-48
2022/08/31 06:46:31;;;;;;;6.88;1.10;;;;;;;;;;4992803;28;20421;-48
2022/08/31 06:48:59;;;;;;;4.13;0.77;;;;;;;;;;4993546;28;20042;-48
2022/08/31 06:51:26;;;;;;;3.80;0.90;;;;;;;;;;4993484;28;20054;-49
2022/08/31 06:53:55;;;;;;;5.38;0.90;;;;;;;;;;4993981;28;20066;-48
2022/08/31 06:56:25;;;;;;;3.53;0.90;;;;;;;;;;4993296;28;20093;-49
2022/08/31 06:58:53;;;;;;;5.18;0.95;;;;;;;;;;4992417;28;20054;-50
2022/08/31 07:01:25;;;;;;;2.75;0.90;;;;;;;;;;4993140;28;20050;-52
2022/08/31 07:03:51;;;;;;;4.93;1.17;;;;;;;;;;4994476;28;20103;-50
2022/08/31 07:06:19;;;;;;;2.03;0.80;;;;;;;;;;4994321;28;20059;-50
2022/08/31 07:08:47;;;;;;;1.88;0.40;;;;;;;;;;4994592;28;20050;-52
2022/08/31 07:11:14;;;;;;;2.47;0.55;;;;;;;;;;4994073;28;20490;-51
2022/08/31 07:13:41;;;;;;;0.75;0.22;;;;;;;;;;4992756;28;20486;-47
2022/08/31 07:16:12;;;;;;;1.10;0.40;;;;;;;;;;4988334;28;20071;-49
2022/08/31 07:18:41;;;;;;;1.60;0.40;;;;;;;;;;4986816;28;20137;-50
2022/08/31 07:21:12;;;;;;;1.40;0.50;;;;;;;;;;4992478;28;20058;-50
2022/08/31 07:23:40;;;;;;;4.35;0.30;;;;;;;;;;4989015;28;20090;-48
2022/08/31 07:26:09;;;;;;;2.13;0.40;;;;;;;;;;4992907;28;20479;-47
2022/08/31 07:28:42;;;;;;;1.80;0.22;;;;;;;;;;4992954;28;20341;-48
2022/08/31 07:31:14;;;;;;;2.42;0.20;;;;;;;;;;4990600;28;20153;-49
2022/08/31 07:33:44;;;;;;;3.78;0.20;;;;;;;;;;4993319;28;20050;-48
2022/08/31 07:36:15;;;;;;;1.60;0.30;;;;;;;;;;4992981;28;20050;-48
2022/08/31 07:44:17;;;;;;;2.47;0.30;;;;;;;;;;4993081;28;20065;-50
2022/08/31 07:46:47;;;;;;;3.08;0.40;;;;;;;;;;4993010;28;20042;-48
2022/08/31 07:49:19;;;;;;;2.00;0.30;;;;;;;;;;4992795;28;20640;-47
2022/08/31 07:51:49;;;;;;;8.70;0.50;;;;;;;;;;4990210;28;20455;-48
2022/08/31 07:54:17;;;;;;;0.82;0.20;;;;;;;;;;4977943;28;20050;-48
2022/08/31 07:56:44;;;;;;;2.03;0.40;;;;;;;;;;4994618;28;20046;-50
2022/08/31 07:59:13;;;;;;;1.35;0.43;;;;;;;;;;4992592;28;20411;-51
2022/08/31 08:01:42;;;;;;;1.80;0.60;;;;;;;;;;4992607;28;20422;-47
2022/08/31 08:04:18;;;;;;;19.63;2.03;;;;;;;;;;4992905;28;20121;-48
2022/08/31 08:06:50;;;;;;;4.28;0.50;;;;;;;;;;4992506;28;20052;-48
2022/08/31 08:09:18;;;;;;;1.08;0.47;;;;;;;;;;4993819;28;20054;-48
2022/08/31 08:11:45;;;;;;;0.40;0.20;;;;;;;;;;4993387;28;20467;-49
2022/08/31 08:14:13;;;;;;;1.58;0.30;;;;;;;;;;4992757;28;20391;-51
2022/08/31 08:16:39;;;;;;;2.67;0.30;;;;;;;;;;4993487;28;20062;-48
2022/08/31 08:19:09;;;;;;;1.17;0.32;;;;;;;;;;4993714;28;20061;-48
2022/08/31 08:21:37;;;;;;;6.25;0.45;;;;;;;;;;4982830;28;20141;-47
2022/08/31 08:24:14;;;;;;;0.32;0.20;;;;;;;;;;4974119;28;20054;-48
2022/08/31 08:26:42;;;;;;;1.80;0.22;;;;;;;;;;4974192;28;20046;-48
2022/08/31 08:29:08;;;;;;;2.40;0.32;;;;;;;;;;4984919;28;20061;-50
2022/08/31 08:31:36;;;;;;;0.40;0.20;;;;;;;;;;4992429;28;20544;-48
2022/08/31 08:34:03;;;;;;;0.75;0.30;;;;;;;;;;4993138;28;20368;-49
2022/08/31 08:36:34;;;;;;;1.52;0.22;;;;;;;;;;4991204;28;20136;-48
2022/08/31 08:39:06;;;;;;;2.25;0.38;;;;;;;;;;4988006;28;20101;-48
2022/08/31 08:41:36;;;;;;;1.88;0.40;;;;;;;;;;4987715;28;20074;-49
2022/08/31 08:44:04;;;;;;;1.17;0.30;;;;;;;;;;4994776;28;20057;-47
2022/08/31 08:46:35;;;;;;;0.47;0.17;;;;;;;;;;4994355;28;20049;-47
2022/08/31 08:49:06;;;;;;;2.80;0.40;;;;;;;;;;4993882;28;20050;-49
2022/08/31 08:51:35;;;;;;;3.70;0.30;;;;;;;;;;4996371;28;20050;-47
2022/08/31 08:54:07;;;;;;;1.45;0.35;;;;;;;;;;4995540;28;20058;-48
2022/08/31 08:56:40;;;;;;;2.17;0.50;;;;;;;;;;4997720;28;20054;-48
2022/08/31 08:59:07;;;;;;;1.20;0.20;;;;;;;;;;4994694;28;20053;-50
2022/08/31 09:01:36;;;;;;;1.90;0.40;;;;;;;;;;4996021;28;20050;-49
2022/08/31 09:04:07;;;;;;;1.02;0.55;;;;;;;;;;4996131;28;20065;-47
2022/08/31 09:06:36;;;;;;;2.53;0.57;;;;;;;;;;4996052;28;20065;-50
2022/08/31 09:09:16;;;;;;;0.75;0.20;;;;;;;;;;4995996;28;20070;-47
2022/08/31 09:11:53;;;;;;;3.28;0.45;;;;;;;;;;4996012;28;20517;-49
2022/08/31 09:14:28;;;;;;;0.98;0.30;;;;;;;;;;4990641;28;20078;-51
2022/08/31 09:16:58;;;;;;;2.88;0.55;;;;;;;;;;4995683;28;20050;-49
2022/08/31 09:19:25;;;;;;;2.13;0.30;;;;;;;;;;4989533;28;20549;-49
2022/08/31 09:21:53;;;;;;;1.42;0.40;;;;;;;;;;4995007;28;20133;-50
2022/08/31 09:24:21;;;;;;;4.38;0.45;;;;;;;;;;4994118;28;20068;-50
2022/08/31 09:26:56;;;;;;;3.10;0.63;;;;;;;;;;4993256;28;20060;-47
2022/08/31 09:29:26;;;;;;;2.45;0.40;;;;;;;;;;4993788;28;20113;-48
2022/08/31 09:32:00;;;;;;;1.13;0.40;;;;;;;;;;4994931;28;20050;-50
2022/08/31 09:34:28;;;;;;;2.25;0.70;;;;;;;;;;4994049;28;20679;-50
2022/08/31 09:37:10;;;;;;;1.67;0.40;;;;;;;;;;4995172;28;20047;-50
2022/08/31 09:39:39;;;;;;;9.10;0.50;;;;;;;;;;4996029;28;20050;-49
2022/08/31 09:42:14;;;;;;;1.67;0.40;;;;;;;;;;4991764;28;20694;-48
2022/08/31 09:44:41;;;;;;;3.97;0.60;;;;;;;;;;4991027;28;20054;-50
2022/08/31 09:47:18;;;;;;;1.35;0.40;;;;;;;;;;4994363;28;20122;-48
2022/08/31 09:49:53;;;;;;;2.35;0.40;;;;;;;;;;4993648;28;20120;-49
2022/08/31 09:55:11;;;;;;;0.38;0.20;;;;;;;;;;4990418;28;20399;-50
2022/08/31 09:55:12;;;;;;;0.70;0.20;;;;;;;;;;4991726;28;20156;-48
2022/08/31 09:57:53;;;;;;;1.35;0.40;;;;;;;;;;5004953;28;20042;-48
2022/08/31 10:00:30;;;;;;;0.50;0.25;;;;;;;;;;5014553;28;20406;-48
2022/08/31 10:02:58;;;;;;;1.75;0.30;;;;;;;;;;5014529;28;20459;-46
2022/08/31 10:05:31;;;;;;;1.17;0.30;;;;;;;;;;5014833;28;20058;-48
2022/08/31 10:08:03;;;;;;;1.63;0.30;;;;;;;;;;5014203;28;20386;-48
2022/08/31 10:10:32;;;;;;;1.70;0.30;;;;;;;;;;5014697;28;20054;-50
2022/08/31 10:13:02;;;;;;;3.65;0.40;;;;;;;;;;4995794;28;20054;-48
2022/08/31 10:15:32;;;;;;;1.30;0.40;;;;;;;;;;4975162;28;20058;-47
2022/08/31 10:18:02;;;;;;;1.23;0.30;;;;;;;;;;4975855;28;20129;-50
2022/08/31 10:20:30;;;;;;;0.70;0.25;;;;;;;;;;4975133;28;20058;-48
2022/08/31 10:22:58;;;;;;;2.55;0.25;;;;;;;;;;4975252;28;20073;-49
2022/08/31 10:25:29;;;;;;;2.83;0.30;;;;;;;;;;4975535;28;20061;-48
2022/08/31 10:27:58;;;;;;;1.00;0.20;;;;;;;;;;4976147;28;20404;-48
2022/08/31 10:30:30;;;;;;;0.63;0.25;;;;;;;;;;4995031;28;20064;-48
2022/08/31 10:32:58;;;;;;;2.40;0.30;;;;;;;;;;4995150;28;20080;-48
2022/08/31 10:35:28;;;;;;;0.45;0.20;;;;;;;;;;4995087;28;20054;-47
2022/08/31 10:37:57;;;;;;;2.08;0.40;;;;;;;;;;4994026;28;20058;-47
2022/08/31 10:40:27;;;;;;;0.95;0.35;;;;;;;;;;4994386;28;20051;-50
2022/08/31 10:43:03;;;;;;;1.65;0.30;;;;;;;;;;4994707;28;20060;-48
2022/08/31 10:45:32;;;;;;;1.25;0.30;;;;;;;;;;4994673;28;20066;-49
2022/08/31 10:47:59;;;;;;;1.10;0.30;;;;;;;;;;4994700;28;20073;-48
2022/08/31 10:50:28;;;;;;;1.63;0.30;;;;;;;;;;4994765;28;20051;-46
2022/08/31 10:53:00;;;;;;;3.25;0.40;;;;;;;;;;4991677;28;20062;-47
2022/08/31 10:55:31;;;;;;;1.85;0.47;;;;;;;;;;4990897;28;20050;-49
2022/08/31 10:58:00;;;;;;;0.80;0.28;;;;;;;;;;4994517;28;20046;-48
2022/08/31 11:00:46;;;;;;;1.27;0.20;;;;;;;;;;4994191;28;20426;-48
2022/08/31 11:03:17;;;;;;;2.20;0.47;;;;;;;;;;4994377;28;20065;-48
2022/08/31 11:05:47;;;;;;;1.90;0.40;;;;;;;;;;4978086;28;20096;-51
2022/08/31 11:08:26;;;;;;;0.47;0.20;;;;;;;;;;4994397;28;20056;-47
2022/08/31 11:10:53;;;;;;;0.57;0.30;;;;;;;;;;4992815;28;20368;-50
2022/08/31 11:13:27;;;;;;;6.05;0.88;;;;;;;;;;4994088;28;20050;-49
2022/08/31 11:16:04;;;;;;;1.05;0.38;;;;;;;;;;4994038;28;20050;-47
2022/08/31 11:18:44;;;;;;;2.25;0.30;;;;;;;;;;4994183;28;20054;-50
2022/08/31 11:21:20;;;;;;;0.70;0.30;;;;;;;;;;4993943;28;20137;-48
2022/08/31 11:23:54;;;;;;;3.17;0.55;;;;;;;;;;4979643;28;20050;-50
2022/08/31 11:26:35;;;;;;;2.03;0.30;;;;;;;;;;4988679;28;20050;-48
2022/08/31 11:29:08;;;;;;;1.70;0.40;;;;;;;;;;4984940;28;20095;-47
2022/08/31 11:31:37;;;;;;;2.28;0.40;;;;;;;;;;4993444;28;20054;-49
2022/08/31 11:34:10;;;;;;;0.50;0.25;;;;;;;;;;4994111;28;20050;-48
2022/08/31 11:36:48;;;;;;;0.60;0.20;;;;;;;;;;4993494;28;20475;-50
2022/08/31 11:39:19;;;;;;;4.85;0.60;;;;;;;;;;4993653;28;20129;-48
2022/08/31 11:41:46;;;;;;;0.40;0.20;;;;;;;;;;4981810;28;20059;-48
2022/08/31 11:44:28;;;;;;;1.80;0.40;;;;;;;;;;4989918;28;20054;-50
2022/08/31 11:47:02;;;;;;;11.63;0.70;;;;;;;;;;4978877;28;20050;-48
2022/08/31 11:49:43;;;;;;;0.52;0.20;;;;;;;;;;4993846;28;20054;-46
2022/08/31 11:52:24;;;;;;;1.13;0.30;;;;;;;;;;4990182;28;20054;-48
2022/08/31 11:54:59;;;;;;;1.17;0.50;;;;;;;;;;4978977;28;20105;-48
2022/08/31 11:57:30;;;;;;;3.90;0.50;;;;;;;;;;5001742;28;20050;-48
2022/08/31 11:59:57;;;;;;;1.17;0.38;;;;;;;;;;4999622;28;20086;-50
2022/08/31 12:02:44;;;;;;;2.22;0.30;;;;;;;;;;4993456;28;20401;-50
2022/08/31 12:05:11;;;;;;;1.75;0.32;;;;;;;;;;4993092;28;20054;-49
2022/08/31 12:07:41;;;;;;;1.13;0.30;;;;;;;;;;4993524;28;20066;-48
2022/08/31 12:10:15;;;;;;;0.98;0.40;;;;;;;;;;4993701;28;20140;-48
2022/08/31 12:12:54;;;;;;;2.75;0.40;;;;;;;;;;4989089;28;20411;-48
2022/08/31 12:15:26;;;;;;;2.22;0.50;;;;;;;;;;4993462;28;20058;-47
2022/08/31 12:18:00;;;;;;;2.85;0.47;;;;;;;;;;4996967;28;20050;-49
2022/08/31 12:20:30;;;;;;;3.58;0.40;;;;;;;;;;4997149;28;20129;-49
2022/08/31 12:26:04;;;;;;;2.40;0.30;;;;;;;;;;4997152;28;20054;-47
2022/08/31 12:28:36;;;;;;;1.25;0.40;;;;;;;;;;4994904;28;20046;-47
2022/08/31 12:31:06;;;;;;;1.88;0.25;;;;;;;;;;4995553;28;20549;-50
2022/08/31 12:33:39;;;;;;;0.98;0.30;;;;;;;;;;4997173;28;20140;-47
2022/08/31 12:36:16;;;;;;;3.17;0.40;;;;;;;;;;4982559;28;20055;-47
2022/08/31 12:38:44;;;;;;;2.05;0.40;;;;;;;;;;4980854;28;20050;-49
2022/08/31 12:41:13;;;;;;;2.13;0.47;;;;;;;;;;4989591;28;20072;-48
2022/08/31 12:43:42;;;;;;;1.05;0.28;;;;;;;;;;4988389;28;20419;-47
2022/08/31 12:46:31;;;;;;;2.03;0.30;;;;;;;;;;4995447;28;20130;-48
2022/08/31 12:49:17;;;;;;;4.70;0.30;;;;;;;;;;4996982;28;20073;-50
2022/08/31 12:51:48;;;;;;;3.72;0.40;;;;;;;;;;4996510;28;20501;-48
2022/08/31 12:54:34;;;;;;;6.35;0.50;;;;;;;;;;4993224;28;20054;-49
2022/08/31 12:57:15;;;;;;;4.43;0.40;;;;;;;;;;4987901;28;20038;-49
2022/08/31 12:59:53;;;;;;;1.33;0.30;;;;;;;;;;5004733;28;20086;-49
2022/08/31 13:02:24;;;;;;;3.05;0.40;;;;;;;;;;4990831;28;20069;-49
2022/08/31 13:04:51;;;;;;;1.77;0.30;;;;;;;;;;4996298;28;20050;-47
2022/08/31 13:07:22;;;;;;;2.13;0.32;;;;;;;;;;4996030;28;20398;-48
2022/08/31 13:10:01;;;;;;;2.00;0.20;;;;;;;;;;4995850;28;20138;-47
2022/08/31 13:12:32;;;;;;;1.15;0.30;;;;;;;;;;4995529;28;20470;-47
2022/08/31 13:15:01;;;;;;;1.80;0.47;;;;;;;;;;4995585;28;20050;-47
2022/08/31 13:17:30;;;;;;;0.88;0.30;;;;;;;;;;4995697;28;20046;-50
2022/08/31 13:20:00;;;;;;;0.85;0.40;;;;;;;;;;4995870;28;20112;-50
2022/08/31 13:22:32;;;;;;;1.00;0.40;;;;;;;;;;4995321;28;20145;-48
2022/08/31 13:25:10;;;;;;;1.25;0.40;;;;;;;;;;4982267;28;20046;-49
2022/08/31 13:27:53;;;;;;;2.30;0.30;;;;;;;;;;4995332;28;20109;-49
2022/08/31 13:30:22;;;;;;;2.55;0.30;;;;;;;;;;4992785;28;20046;-48
2022/08/31 13:32:51;;;;;;;3.63;0.30;;;;;;;;;;4994860;28;20046;-48
2022/08/31 13:35:19;;;;;;;1.83;0.30;;;;;;;;;;4996150;28;20050;-50
2022/08/31 13:38:03;;;;;;;0.70;0.40;;;;;;;;;;4995968;28;20050;-50
2022/08/31 13:40:33;;;;;;;3.83;0.30;;;;;;;;;;4993683;28;20770;-48
2022/08/31 13:43:05;;;;;;;1.63;0.30;;;;;;;;;;4981922;28;20399;-49
2022/08/31 13:45:35;;;;;;;1.52;0.43;;;;;;;;;;4995144;28;20049;-48
2022/08/31 13:48:08;;;;;;;2.38;0.30;;;;;;;;;;4995255;28;20108;-47
2022/08/31 13:50:50;;;;;;;0.47;0.20;;;;;;;;;;4992689;28;20104;-46
2022/08/31 13:53:38;;;;;;;2.67;0.40;;;;;;;;;;4991755;28;20646;-47
2022/08/31 13:59:26;;;;;;;0.63;0.35;;;;;;;;;;4987920;28;20057;-47
2022/08/31 14:01:55;;;;;;;1.05;0.30;;;;;;;;;;4995458;28;20137;-48
2022/08/31 14:04:42;;;;;;;0.57;0.30;;;;;;;;;;4995390;28;20048;-46
2022/08/31 14:07:13;;;;;;;1.00;0.40;;;;;;;;;;4995406;28;20060;-51
2022/08/31 14:09:52;;;;;;;1.13;0.47;;;;;;;;;;4995470;28;20209;-48
2022/08/31 14:12:33;;;;;;;0.50;0.22;;;;;;;;;;4992030;28;20056;-48
2022/08/31 14:15:27;;;;;;;1.83;0.40;;;;;;;;;;4995198;28;20121;-48
2022/08/31 14:17:58;;;;;;;1.58;0.25;;;;;;;;;;4995188;28;20085;-48
2022/08/31 14:20:35;;;;;;;1.02;0.32;;;;;;;;;;4995025;28;20141;-50
2022/08/31 14:23:23;;;;;;;3.13;0.47;;;;;;;;;;4994672;28;20109;-49
2022/08/31 14:25:52;;;;;;;1.27;0.28;;;;;;;;;;4994259;28;20132;-48
2022/08/31 14:28:36;;;;;;;0.55;0.22;;;;;;;;;;4993677;28;20054;-48
2022/08/31 14:31:23;;;;;;;1.25;0.40;;;;;;;;;;4995728;28;20065;-50
2022/08/31 14:33:54;;;;;;;3.55;0.40;;;;;;;;;;4995203;28;20058;-48
2022/08/31 14:36:26;;;;;;;0.30;0.20;;;;;;;;;;4995263;28;20054;-45
2022/08/31 14:38:54;;;;;;;3.55;0.30;;;;;;;;;;4994654;28;20062;-47
2022/08/31 14:41:29;;;;;;;2.47;0.50;;;;;;;;;;4994905;28;20058;-45
2022/08/31 14:44:07;;;;;;;1.67;0.30;;;;;;;;;;4994591;28;20144;-46
2022/08/31 14:46:40;;;;;;;2.45;0.40;;;;;;;;;;4994471;28;20395;-46
2022/08/31 14:49:08;;;;;;;9.80;0.65;;;;;;;;;;4994779;28;20054;-46
2022/08/31 14:51:37;;;;;;;2.20;0.40;;;;;;;;;;4994841;28;20050;-48
2022/08/31 14:54:10;;;;;;;2.03;0.40;;;;;;;;;;4994243;28;20054;-47
2022/08/31 14:56:46;;;;;;;0.95;0.28;;;;;;;;;;4979175;28;20073;-51
2022/08/31 14:59:16;;;;;;;4.70;1.20;;;;;;;;;;5013942;28;20489;-44
2022/08/31 15:01:47;;;;;;;2.40;0.70;;;;;;;;;;5013912;28;20049;-47
2022/08/31 15:04:18;;;;;;;2.92;0.60;;;;;;;;;;5014240;28;20054;-49
2022/08/31 15:07:04;;;;;;;12.75;0.95;;;;;;;;;;5014088;28;20137;-47
2022/08/31 15:09:34;;;;;;;3.85;0.30;;;;;;;;;;5013277;28;20060;-48
2022/08/31 15:12:04;;;;;;;0.80;0.40;;;;;;;;;;5003919;28;20046;-51
2022/08/31 15:14:35;;;;;;;7.13;0.52;;;;;;;;;;4994714;28;20065;-49
2022/08/31 15:17:05;;;;;;;1.20;0.40;;;;;;;;;;4993961;28;20683;-47
2022/08/31 15:19:34;;;;;;;4.95;0.40;;;;;;;;;;4994154;28;20050;-48